sensor_id;sensor_type;location;lat;lon;timestamp;temperature;humidity
64833;HTU21D;51290;45.060;38.948;2024-03-29T00:01:16;11.77;55.97
64833;HTU21D;51290;45.060;38.948;2024-03-29T00:03:42;11.79;55.96
64833;HTU21D;51290;45.060;38.948;2024-03-29T00:06:08;11.83;55.96
64833;HTU21D;51290;45.060;38.948;2024-03-29T00:08:38;11.87;56.03
64833;HTU21D;51290;45.060;38.948;2024-03-29T00:11:04;11.90;55.95
64833;HTU21D;51290;45.060;38.948;2024-03-29T00:13:30;11.94;55.82
64833;HTU21D;51290;45.060;38.948;2024-03-29T00:15:56;11.97;55.71
64833;HTU21D;51290;45.060;38.948;2024-03-29T00:18:22;12.01;55.61
64833;HTU21D;51290;45.060;38.948;2024-03-29T00:20:49;12.05;55.53
64833;HTU21D;51290;45.060;38.948;2024-03-29T00:23:15;12.10;55.42
64833;HTU21D;51290;45.060;38.948;2024-03-29T00:25:41;12.16;55.28
64833;HTU21D;51290;45.060;38.948;2024-03-29T00:28:07;12.19;55.10
64833;HTU21D;51290;45.060;38.948;2024-03-29T00:30:33;12.22;54.94
64833;HTU21D;51290;45.060;38.948;2024-03-29T00:32:59;12.27;54.82
64833;HTU21D;51290;45.060;38.948;2024-03-29T00:35:25;12.29;54.71
64833;HTU21D;51290;45.060;38.948;2024-03-29T00:37:51;12.29;54.62
64833;HTU21D;51290;45.060;38.948;2024-03-29T00:40:17;12.32;54.55
64833;HTU21D;51290;45.060;38.948;2024-03-29T00:42:43;12.30;54.47
64833;HTU21D;51290;45.060;38.948;2024-03-29T00:45:09;12.30;54.41
64833;HTU21D;51290;45.060;38.948;2024-03-29T00:47:35;12.30;54.34
64833;HTU21D;51290;45.060;38.948;2024-03-29T00:50:01;12.31;54.31
64833;HTU21D;51290;45.060;38.948;2024-03-29T00:52:27;12.30;54.26
64833;HTU21D;51290;45.060;38.948;2024-03-29T00:54:53;12.30;54.22
64833;HTU21D;51290;45.060;38.948;2024-03-29T00:57:19;12.31;54.18
64833;HTU21D;51290;45.060;38.948;2024-03-29T00:59:45;12.33;54.14
64833;HTU21D;51290;45.060;38.948;2024-03-29T01:02:12;12.34;54.07
64833;HTU21D;51290;45.060;38.948;2024-03-29T01:04:38;12.36;53.97
64833;HTU21D;51290;45.060;38.948;2024-03-29T01:07:06;12.35;53.90
64833;HTU21D;51290;45.060;38.948;2024-03-29T01:09:32;12.34;53.84
64833;HTU21D;51290;45.060;38.948;2024-03-29T01:11:58;12.35;53.80
64833;HTU21D;51290;45.060;38.948;2024-03-29T01:14:24;12.35;53.74
64833;HTU21D;51290;45.060;38.948;2024-03-29T01:16:50;12.35;53.71
64833;HTU21D;51290;45.060;38.948;2024-03-29T01:19:16;12.35;53.68
64833;HTU21D;51290;45.060;38.948;2024-03-29T01:21:43;12.36;53.61
64833;HTU21D;51290;45.060;38.948;2024-03-29T01:24:09;12.37;53.52
64833;HTU21D;51290;45.060;38.948;2024-03-29T01:26:35;12.40;53.40
64833;HTU21D;51290;45.060;38.948;2024-03-29T01:29:01;12.43;53.26
64833;HTU21D;51290;45.060;38.948;2024-03-29T01:31:27;12.45;53.10
64833;HTU21D;51290;45.060;38.948;2024-03-29T01:33:53;12.48;52.98
64833;HTU21D;51290;45.060;38.948;2024-03-29T01:36:21;12.50;52.90
64833;HTU21D;51290;45.060;38.948;2024-03-29T01:38:47;12.55;52.78
64833;HTU21D;51290;45.060;38.948;2024-03-29T01:41:15;12.59;52.65
64833;HTU21D;51290;45.060;38.948;2024-03-29T01:43:40;12.62;52.43
64833;HTU21D;51290;45.060;38.948;2024-03-29T01:46:06;12.67;52.29
64833;HTU21D;51290;45.060;38.948;2024-03-29T01:48:33;12.70;52.17
64833;HTU21D;51290;45.060;38.948;2024-03-29T01:51:00;12.73;52.02
64833;HTU21D;51290;45.060;38.948;2024-03-29T01:53:27;12.75;51.85
64833;HTU21D;51290;45.060;38.948;2024-03-29T01:55:54;12.78;51.81
64833;HTU21D;51290;45.060;38.948;2024-03-29T01:58:22;12.79;51.82
64833;HTU21D;51290;45.060;38.948;2024-03-29T02:00:52;12.78;51.79
64833;HTU21D;51290;45.060;38.948;2024-03-29T02:03:20;12.76;51.81
64833;HTU21D;51290;45.060;38.948;2024-03-29T02:05:47;12.72;51.79
64833;HTU21D;51290;45.060;38.948;2024-03-29T02:08:14;12.69;51.79
64833;HTU21D;51290;45.060;38.948;2024-03-29T02:10:42;12.64;51.78
64833;HTU21D;51290;45.060;38.948;2024-03-29T02:13:08;12.60;51.85
64833;HTU21D;51290;45.060;38.948;2024-03-29T02:15:34;12.58;51.95
64833;HTU21D;51290;45.060;38.948;2024-03-29T02:18:00;12.55;52.01
64833;HTU21D;51290;45.060;38.948;2024-03-29T02:20:26;12.52;52.04
64833;HTU21D;51290;45.060;38.948;2024-03-29T02:23:14;12.48;52.14
64833;HTU21D;51290;45.060;38.948;2024-03-29T02:25:39;12.44;52.25
64833;HTU21D;51290;45.060;38.948;2024-03-29T02:28:05;12.41;52.28
64833;HTU21D;51290;45.060;38.948;2024-03-29T02:30:31;12.34;52.33
64833;HTU21D;51290;45.060;38.948;2024-03-29T02:32:58;12.29;52.40
64833;HTU21D;51290;45.060;38.948;2024-03-29T02:35:24;12.21;52.49
64833;HTU21D;51290;45.060;38.948;2024-03-29T02:37:51;12.16;52.65
64833;HTU21D;51290;45.060;38.948;2024-03-29T02:40:18;12.10;52.79
64833;HTU21D;51290;45.060;38.948;2024-03-29T02:42:44;12.06;52.89
64833;HTU21D;51290;45.060;38.948;2024-03-29T02:45:10;12.05;53.01
64833;HTU21D;51290;45.060;38.948;2024-03-29T02:47:36;12.04;53.09
64833;HTU21D;51290;45.060;38.948;2024-03-29T02:50:02;12.05;53.14
64833;HTU21D;51290;45.060;38.948;2024-03-29T02:52:29;12.06;53.15
64833;HTU21D;51290;45.060;38.948;2024-03-29T02:54:55;12.08;53.17
64833;HTU21D;51290;45.060;38.948;2024-03-29T02:57:21;12.12;53.19
64833;HTU21D;51290;45.060;38.948;2024-03-29T02:59:47;12.12;53.20
64833;HTU21D;51290;45.060;38.948;2024-03-29T03:02:13;12.14;53.20
64833;HTU21D;51290;45.060;38.948;2024-03-29T03:04:39;12.16;53.19
64833;HTU21D;51290;45.060;38.948;2024-03-29T03:07:05;12.18;53.20
64833;HTU21D;51290;45.060;38.948;2024-03-29T03:09:49;12.21;53.20
64833;HTU21D;51290;45.060;38.948;2024-03-29T03:12:33;12.23;53.22
64833;HTU21D;51290;45.060;38.948;2024-03-29T03:14:59;12.26;53.22
64833;HTU21D;51290;45.060;38.948;2024-03-29T03:17:26;12.29;53.20
64833;HTU21D;51290;45.060;38.948;2024-03-29T03:19:52;12.33;53.18
64833;HTU21D;51290;45.060;38.948;2024-03-29T03:22:18;12.36;53.15
64833;HTU21D;51290;45.060;38.948;2024-03-29T03:24:45;12.40;53.10
64833;HTU21D;51290;45.060;38.948;2024-03-29T03:27:11;12.44;53.05
64833;HTU21D;51290;45.060;38.948;2024-03-29T03:29:39;12.49;53.02
64833;HTU21D;51290;45.060;38.948;2024-03-29T03:32:05;12.52;52.98
64833;HTU21D;51290;45.060;38.948;2024-03-29T03:34:32;12.59;52.94
64833;HTU21D;51290;45.060;38.948;2024-03-29T03:36:58;12.62;52.91
64833;HTU21D;51290;45.060;38.948;2024-03-29T03:39:24;12.65;52.86
64833;HTU21D;51290;45.060;38.948;2024-03-29T03:41:50;12.70;52.81
64833;HTU21D;51290;45.060;38.948;2024-03-29T03:44:17;12.73;52.78
64833;HTU21D;51290;45.060;38.948;2024-03-29T03:46:42;12.77;52.78
64833;HTU21D;51290;45.060;38.948;2024-03-29T03:49:08;12.79;52.78
64833;HTU21D;51290;45.060;38.948;2024-03-29T03:51:34;12.81;52.77
64833;HTU21D;51290;45.060;38.948;2024-03-29T03:54:00;12.86;52.75
64833;HTU21D;51290;45.060;38.948;2024-03-29T03:56:26;12.89;52.73
64833;HTU21D;51290;45.060;38.948;2024-03-29T03:58:52;12.93;52.69
64833;HTU21D;51290;45.060;38.948;2024-03-29T04:01:18;12.97;52.64
64833;HTU21D;51290;45.060;38.948;2024-03-29T04:03:44;13.02;52.60
64833;HTU21D;51290;45.060;38.948;2024-03-29T04:06:10;13.06;52.59
64833;HTU21D;51290;45.060;38.948;2024-03-29T04:08:36;13.10;52.59
64833;HTU21D;51290;45.060;38.948;2024-03-29T04:11:03;13.14;52.57
64833;HTU21D;51290;45.060;38.948;2024-03-29T04:13:29;13.17;52.56
64833;HTU21D;51290;45.060;38.948;2024-03-29T04:16:02;13.22;52.62
64833;HTU21D;51290;45.060;38.948;2024-03-29T04:18:28;13.27;52.59
64833;HTU21D;51290;45.060;38.948;2024-03-29T04:21:00;13.34;52.59
64833;HTU21D;51290;45.060;38.948;2024-03-29T04:23:27;13.39;52.55
64833;HTU21D;51290;45.060;38.948;2024-03-29T04:25:54;13.44;52.51
64833;HTU21D;51290;45.060;38.948;2024-03-29T04:28:20;13.52;52.48
64833;HTU21D;51290;45.060;38.948;2024-03-29T04:30:57;13.60;52.43
64833;HTU21D;51290;45.060;38.948;2024-03-29T04:33:24;13.68;52.35
64833;HTU21D;51290;45.060;38.948;2024-03-29T04:36:03;13.79;52.30
64833;HTU21D;51290;45.060;38.948;2024-03-29T04:38:30;13.91;52.17
64833;HTU21D;51290;45.060;38.948;2024-03-29T04:40:57;14.01;52.04
64833;HTU21D;51290;45.060;38.948;2024-03-29T04:43:25;14.15;51.94
64833;HTU21D;51290;45.060;38.948;2024-03-29T04:46:04;14.30;51.79
64833;HTU21D;51290;45.060;38.948;2024-03-29T04:48:32;14.45;51.62
64833;HTU21D;51290;45.060;38.948;2024-03-29T04:50:58;14.63;51.52
64833;HTU21D;51290;45.060;38.948;2024-03-29T04:53:24;14.84;51.23
64833;HTU21D;51290;45.060;38.948;2024-03-29T04:55:54;15.04;50.84
64833;HTU21D;51290;45.060;38.948;2024-03-29T04:58:21;15.23;50.43
64833;HTU21D;51290;45.060;38.948;2024-03-29T05:00:48;15.38;50.04
64833;HTU21D;51290;45.060;38.948;2024-03-29T05:03:17;15.51;49.60
64833;HTU21D;51290;45.060;38.948;2024-03-29T05:05:47;15.58;49.26
64833;HTU21D;51290;45.060;38.948;2024-03-29T05:08:13;15.61;49.03
64833;HTU21D;51290;45.060;38.948;2024-03-29T05:10:40;15.68;48.82
64833;HTU21D;51290;45.060;38.948;2024-03-29T05:13:06;15.74;48.52
64833;HTU21D;51290;45.060;38.948;2024-03-29T05:15:32;15.82;48.20
64833;HTU21D;51290;45.060;38.948;2024-03-29T05:17:59;15.92;47.92
64833;HTU21D;51290;45.060;38.948;2024-03-29T05:20:25;16.06;47.67
64833;HTU21D;51290;45.060;38.948;2024-03-29T05:22:51;16.20;47.28
64833;HTU21D;51290;45.060;38.948;2024-03-29T05:25:17;16.39;47.15
64833;HTU21D;51290;45.060;38.948;2024-03-29T05:27:43;16.56;46.91
64833;HTU21D;51290;45.060;38.948;2024-03-29T05:30:09;16.75;46.54
64833;HTU21D;51290;45.060;38.948;2024-03-29T05:32:39;16.90;46.05
64833;HTU21D;51290;45.060;38.948;2024-03-29T05:35:05;17.03;45.89
64833;HTU21D;51290;45.060;38.948;2024-03-29T05:37:31;17.17;45.57
64833;HTU21D;51290;45.060;38.948;2024-03-29T05:39:57;17.30;45.32
64833;HTU21D;51290;45.060;38.948;2024-03-29T05:42:26;17.43;44.90
64833;HTU21D;51290;45.060;38.948;2024-03-29T05:44:52;17.51;44.62
64833;HTU21D;51290;45.060;38.948;2024-03-29T05:47:19;17.56;44.31
64833;HTU21D;51290;45.060;38.948;2024-03-29T05:49:45;17.60;43.78
64833;HTU21D;51290;45.060;38.948;2024-03-29T05:52:11;17.61;43.38
64833;HTU21D;51290;45.060;38.948;2024-03-29T05:54:43;17.62;42.89
64833;HTU21D;51290;45.060;38.948;2024-03-29T05:57:10;17.64;42.81
64833;HTU21D;51290;45.060;38.948;2024-03-29T05:59:36;17.67;42.54
64833;HTU21D;51290;45.060;38.948;2024-03-29T06:02:04;17.69;42.30
64833;HTU21D;51290;45.060;38.948;2024-03-29T06:04:31;17.72;42.16
64833;HTU21D;51290;45.060;38.948;2024-03-29T06:07:00;17.75;41.94
64833;HTU21D;51290;45.060;38.948;2024-03-29T06:09:26;17.77;41.80
64833;HTU21D;51290;45.060;38.948;2024-03-29T06:11:54;17.80;41.65
64833;HTU21D;51290;45.060;38.948;2024-03-29T06:14:23;17.85;41.65
64833;HTU21D;51290;45.060;38.948;2024-03-29T06:17:08;17.92;41.67
64833;HTU21D;51290;45.060;38.948;2024-03-29T06:19:54;18.03;41.58
64833;HTU21D;51290;45.060;38.948;2024-03-29T06:22:24;18.12;41.58
64833;HTU21D;51290;45.060;38.948;2024-03-29T06:24:51;18.22;41.39
64833;HTU21D;51290;45.060;38.948;2024-03-29T06:27:21;18.30;41.20
64833;HTU21D;51290;45.060;38.948;2024-03-29T06:29:49;18.39;40.88
64833;HTU21D;51290;45.060;38.948;2024-03-29T06:32:15;18.46;40.61
64833;HTU21D;51290;45.060;38.948;2024-03-29T06:34:46;18.49;39.94
64833;HTU21D;51290;45.060;38.948;2024-03-29T06:37:18;18.44;39.43
64833;HTU21D;51290;45.060;38.948;2024-03-29T06:39:48;18.39;39.62
64833;HTU21D;51290;45.060;38.948;2024-03-29T06:42:16;18.37;39.49
64833;HTU21D;51290;45.060;38.948;2024-03-29T06:44:43;18.33;39.29
64833;HTU21D;51290;45.060;38.948;2024-03-29T06:47:09;18.29;39.33
64833;HTU21D;51290;45.060;38.948;2024-03-29T06:49:35;18.29;39.18
64833;HTU21D;51290;45.060;38.948;2024-03-29T06:52:02;18.29;38.98
64833;HTU21D;51290;45.060;38.948;2024-03-29T06:54:28;18.33;39.01
64833;HTU21D;51290;45.060;38.948;2024-03-29T06:56:55;18.43;39.30
64833;HTU21D;51290;45.060;38.948;2024-03-29T06:59:21;18.55;39.03
64833;HTU21D;51290;45.060;38.948;2024-03-29T07:01:48;18.67;39.03
64833;HTU21D;51290;45.060;38.948;2024-03-29T07:04:22;18.77;39.17
64833;HTU21D;51290;45.060;38.948;2024-03-29T07:06:49;18.84;39.21
64833;HTU21D;51290;45.060;38.948;2024-03-29T07:09:19;18.93;39.11
64833;HTU21D;51290;45.060;38.948;2024-03-29T07:11:46;18.98;38.97
64833;HTU21D;51290;45.060;38.948;2024-03-29T07:14:14;19.02;39.01
64833;HTU21D;51290;45.060;38.948;2024-03-29T07:16:40;19.08;39.30
64833;HTU21D;51290;45.060;38.948;2024-03-29T07:19:06;19.14;39.14
64833;HTU21D;51290;45.060;38.948;2024-03-29T07:21:33;19.16;39.01
64833;HTU21D;51290;45.060;38.948;2024-03-29T07:23:59;19.20;38.66
64833;HTU21D;51290;45.060;38.948;2024-03-29T07:26:25;19.22;38.65
64833;HTU21D;51290;45.060;38.948;2024-03-29T07:28:51;19.26;38.79
64833;HTU21D;51290;45.060;38.948;2024-03-29T07:31:18;19.35;38.54
64833;HTU21D;51290;45.060;38.948;2024-03-29T07:33:44;19.44;38.33
64833;HTU21D;51290;45.060;38.948;2024-03-29T07:36:09;19.55;38.24
64833;HTU21D;51290;45.060;38.948;2024-03-29T07:38:37;19.67;37.92
64833;HTU21D;51290;45.060;38.948;2024-03-29T07:41:06;19.75;37.57
64833;HTU21D;51290;45.060;38.948;2024-03-29T07:43:39;19.86;37.40
64833;HTU21D;51290;45.060;38.948;2024-03-29T07:46:07;19.96;37.01
64833;HTU21D;51290;45.060;38.948;2024-03-29T07:48:34;20.04;36.53
64833;HTU21D;51290;45.060;38.948;2024-03-29T07:51:01;20.13;36.11
64833;HTU21D;51290;45.060;38.948;2024-03-29T07:53:27;20.22;35.76
64833;HTU21D;51290;45.060;38.948;2024-03-29T07:55:53;20.33;35.35
64833;HTU21D;51290;45.060;38.948;2024-03-29T07:58:21;20.40;35.00
64833;HTU21D;51290;45.060;38.948;2024-03-29T08:00:47;20.46;34.80
64833;HTU21D;51290;45.060;38.948;2024-03-29T08:03:13;20.48;34.28
64833;HTU21D;51290;45.060;38.948;2024-03-29T08:05:39;20.49;34.32
64833;HTU21D;51290;45.060;38.948;2024-03-29T08:08:06;20.50;34.10
64833;HTU21D;51290;45.060;38.948;2024-03-29T08:10:32;20.53;34.25
64833;HTU21D;51290;45.060;38.948;2024-03-29T08:12:58;20.59;34.34
64833;HTU21D;51290;45.060;38.948;2024-03-29T08:15:26;20.65;34.29
64833;HTU21D;51290;45.060;38.948;2024-03-29T08:17:53;20.73;34.18
64833;HTU21D;51290;45.060;38.948;2024-03-29T08:20:19;20.79;34.08
64833;HTU21D;51290;45.060;38.948;2024-03-29T08:22:45;20.88;33.96
64833;HTU21D;51290;45.060;38.948;2024-03-29T08:25:10;20.96;33.74
64833;HTU21D;51290;45.060;38.948;2024-03-29T08:27:36;21.01;33.47
64833;HTU21D;51290;45.060;38.948;2024-03-29T08:30:03;21.04;33.21
64833;HTU21D;51290;45.060;38.948;2024-03-29T08:32:29;21.04;33.02
64833;HTU21D;51290;45.060;38.948;2024-03-29T08:34:55;21.06;32.89
64833;HTU21D;51290;45.060;38.948;2024-03-29T08:37:21;21.06;32.77
64833;HTU21D;51290;45.060;38.948;2024-03-29T08:39:47;21.03;32.70
64833;HTU21D;51290;45.060;38.948;2024-03-29T08:42:13;21.00;32.79
64833;HTU21D;51290;45.060;38.948;2024-03-29T08:44:39;20.96;32.78
64833;HTU21D;51290;45.060;38.948;2024-03-29T08:47:05;20.93;32.64
64833;HTU21D;51290;45.060;38.948;2024-03-29T08:49:31;20.89;32.75
64833;HTU21D;51290;45.060;38.948;2024-03-29T08:51:57;20.87;32.88
64833;HTU21D;51290;45.060;38.948;2024-03-29T08:54:25;20.83;32.95
64833;HTU21D;51290;45.060;38.948;2024-03-29T08:56:53;20.77;33.07
64833;HTU21D;51290;45.060;38.948;2024-03-29T08:59:19;20.75;33.22
64833;HTU21D;51290;45.060;38.948;2024-03-29T09:01:46;20.76;33.31
64833;HTU21D;51290;45.060;38.948;2024-03-29T09:04:15;20.78;33.31
64833;HTU21D;51290;45.060;38.948;2024-03-29T09:06:42;20.79;33.25
64833;HTU21D;51290;45.060;38.948;2024-03-29T09:09:08;20.77;33.32
64833;HTU21D;51290;45.060;38.948;2024-03-29T09:11:35;20.74;33.28
64833;HTU21D;51290;45.060;38.948;2024-03-29T09:14:02;20.69;33.38
64833;HTU21D;51290;45.060;38.948;2024-03-29T09:16:29;20.66;33.36
64833;HTU21D;51290;45.060;38.948;2024-03-29T09:18:56;20.60;33.51
64833;HTU21D;51290;45.060;38.948;2024-03-29T09:21:22;20.51;33.72
64833;HTU21D;51290;45.060;38.948;2024-03-29T09:23:48;20.45;33.93
64833;HTU21D;51290;45.060;38.948;2024-03-29T09:26:16;20.35;34.21
64833;HTU21D;51290;45.060;38.948;2024-03-29T09:28:42;20.30;34.69
64833;HTU21D;51290;45.060;38.948;2024-03-29T09:31:08;20.27;35.10
64833;HTU21D;51290;45.060;38.948;2024-03-29T09:33:35;20.22;35.50
64833;HTU21D;51290;45.060;38.948;2024-03-29T09:36:01;20.20;35.85
64833;HTU21D;51290;45.060;38.948;2024-03-29T09:38:27;20.19;36.36
64833;HTU21D;51290;45.060;38.948;2024-03-29T09:43:34;20.06;37.53
64833;HTU21D;51290;45.060;38.948;2024-03-29T09:46:00;19.99;38.08
64833;HTU21D;51290;45.060;38.948;2024-03-29T09:48:28;19.90;38.65
64833;HTU21D;51290;45.060;38.948;2024-03-29T09:51:04;19.87;39.21
64833;HTU21D;51290;45.060;38.948;2024-03-29T09:53:32;19.86;39.69
64833;HTU21D;51290;45.060;38.948;2024-03-29T09:56:00;19.84;40.18
64833;HTU21D;51290;45.060;38.948;2024-03-29T09:58:26;19.81;40.65
64833;HTU21D;51290;45.060;38.948;2024-03-29T10:00:55;19.75;41.19
64833;HTU21D;51290;45.060;38.948;2024-03-29T10:03:24;19.66;41.81
64833;HTU21D;51290;45.060;38.948;2024-03-29T10:05:59;19.55;42.41
64833;HTU21D;51290;45.060;38.948;2024-03-29T10:08:26;19.43;43.02
64833;HTU21D;51290;45.060;38.948;2024-03-29T10:10:57;19.36;43.54
64833;HTU21D;51290;45.060;38.948;2024-03-29T10:13:23;19.31;44.11
64833;HTU21D;51290;45.060;38.948;2024-03-29T10:15:53;19.25;44.67
64833;HTU21D;51290;45.060;38.948;2024-03-29T10:18:25;19.22;45.08
64833;HTU21D;51290;45.060;38.948;2024-03-29T10:21:05;19.14;45.57
64833;HTU21D;51290;45.060;38.948;2024-03-29T10:23:34;19.07;46.02
64833;HTU21D;51290;45.060;38.948;2024-03-29T10:26:03;18.97;46.67
64833;HTU21D;51290;45.060;38.948;2024-03-29T10:28:34;18.87;47.34
64833;HTU21D;51290;45.060;38.948;2024-03-29T10:31:01;18.79;47.69
64833;HTU21D;51290;45.060;38.948;2024-03-29T10:33:32;18.70;48.26
64833;HTU21D;51290;45.060;38.948;2024-03-29T10:36:03;18.59;48.82
64833;HTU21D;51290;45.060;38.948;2024-03-29T10:38:34;18.50;49.00
64833;HTU21D;51290;45.060;38.948;2024-03-29T10:41:00;18.40;49.51
64833;HTU21D;51290;45.060;38.948;2024-03-29T10:43:29;18.30;49.85
64833;HTU21D;51290;45.060;38.948;2024-03-29T10:46:00;18.21;50.36
64833;HTU21D;51290;45.060;38.948;2024-03-29T10:48:27;18.12;50.72
64833;HTU21D;51290;45.060;38.948;2024-03-29T10:50:57;18.02;51.16
64833;HTU21D;51290;45.060;38.948;2024-03-29T10:53:24;17.91;51.50
64833;HTU21D;51290;45.060;38.948;2024-03-29T10:55:57;17.78;52.19
64833;HTU21D;51290;45.060;38.948;2024-03-29T10:58:31;17.66;52.56
64833;HTU21D;51290;45.060;38.948;2024-03-29T11:00:59;17.55;51.76
64833;HTU21D;51290;45.060;38.948;2024-03-29T11:03:37;17.40;52.51
64833;HTU21D;51290;45.060;38.948;2024-03-29T11:06:05;17.25;53.29
64833;HTU21D;51290;45.060;38.948;2024-03-29T11:08:37;17.11;53.95
64833;HTU21D;51290;45.060;38.948;2024-03-29T11:11:07;17.01;54.46
64833;HTU21D;51290;45.060;38.948;2024-03-29T11:16:12;16.89;55.42
64833;HTU21D;51290;45.060;38.948;2024-03-29T11:18:39;16.92;55.87
64833;HTU21D;51290;45.060;38.948;2024-03-29T11:21:06;17.00;56.14
64833;HTU21D;51290;45.060;38.948;2024-03-29T11:23:35;17.13;56.35
64833;HTU21D;51290;45.060;38.948;2024-03-29T11:26:01;17.28;56.58
64833;HTU21D;51290;45.060;38.948;2024-03-29T11:28:34;17.48;56.81
64833;HTU21D;51290;45.060;38.948;2024-03-29T11:31:06;17.56;56.85
64833;HTU21D;51290;45.060;38.948;2024-03-29T11:36:12;17.53;57.26
64833;HTU21D;51290;45.060;38.948;2024-03-29T11:38:39;17.53;57.40
64833;HTU21D;51290;45.060;38.948;2024-03-29T11:41:07;17.54;57.71
64833;HTU21D;51290;45.060;38.948;2024-03-29T11:43:34;17.54;58.21
64833;HTU21D;51290;45.060;38.948;2024-03-29T11:46:01;17.51;58.79
64833;HTU21D;51290;45.060;38.948;2024-03-29T11:48:29;17.40;59.25
64833;HTU21D;51290;45.060;38.948;2024-03-29T11:50:55;17.33;59.25
64833;HTU21D;51290;45.060;38.948;2024-03-29T11:53:21;17.30;59.47
64833;HTU21D;51290;45.060;38.948;2024-03-29T11:55:48;17.30;59.57
64833;HTU21D;51290;45.060;38.948;2024-03-29T11:58:21;17.36;59.73
64833;HTU21D;51290;45.060;38.948;2024-03-29T12:00:48;17.38;59.94
64833;HTU21D;51290;45.060;38.948;2024-03-29T12:03:18;17.39;60.27
64833;HTU21D;51290;45.060;38.948;2024-03-29T12:05:46;17.40;60.29
64833;HTU21D;51290;45.060;38.948;2024-03-29T12:08:14;17.41;60.44
64833;HTU21D;51290;45.060;38.948;2024-03-29T12:10:40;17.46;60.74
64833;HTU21D;51290;45.060;38.948;2024-03-29T12:13:07;17.48;60.94
64833;HTU21D;51290;45.060;38.948;2024-03-29T12:15:33;17.52;60.89
64833;HTU21D;51290;45.060;38.948;2024-03-29T12:18:03;17.55;60.78
64833;HTU21D;51290;45.060;38.948;2024-03-29T12:20:35;17.56;60.54
64833;HTU21D;51290;45.060;38.948;2024-03-29T12:23:08;17.55;60.44
64833;HTU21D;51290;45.060;38.948;2024-03-29T12:25:37;17.51;60.49
64833;HTU21D;51290;45.060;38.948;2024-03-29T12:28:03;17.47;60.47
64833;HTU21D;51290;45.060;38.948;2024-03-29T12:30:30;17.47;60.83
64833;HTU21D;51290;45.060;38.948;2024-03-29T12:33:08;17.41;60.78
64833;HTU21D;51290;45.060;38.948;2024-03-29T12:35:37;17.35;60.70
64833;HTU21D;51290;45.060;38.948;2024-03-29T12:38:04;17.30;60.77
64833;HTU21D;51290;45.060;38.948;2024-03-29T12:40:33;17.22;61.05
64833;HTU21D;51290;45.060;38.948;2024-03-29T12:43:07;17.17;61.41
64833;HTU21D;51290;45.060;38.948;2024-03-29T12:45:34;17.14;61.79
64833;HTU21D;51290;45.060;38.948;2024-03-29T12:48:02;17.11;62.02
64833;HTU21D;51290;45.060;38.948;2024-03-29T12:50:32;17.07;62.14
64833;HTU21D;51290;45.060;38.948;2024-03-29T12:53:05;17.06;62.40
64833;HTU21D;51290;45.060;38.948;2024-03-29T12:55:32;17.03;62.62
64833;HTU21D;51290;45.060;38.948;2024-03-29T12:58:04;17.05;62.54
64833;HTU21D;51290;45.060;38.948;2024-03-29T13:00:33;17.08;62.31
64833;HTU21D;51290;45.060;38.948;2024-03-29T13:03:00;17.10;62.24
64833;HTU21D;51290;45.060;38.948;2024-03-29T13:05:29;17.17;62.21
64833;HTU21D;51290;45.060;38.948;2024-03-29T13:08:04;17.26;61.93
64833;HTU21D;51290;45.060;38.948;2024-03-29T13:10:31;17.33;61.63
64833;HTU21D;51290;45.060;38.948;2024-03-29T13:12:57;17.37;61.26
64833;HTU21D;51290;45.060;38.948;2024-03-29T13:15:24;17.38;61.14
64833;HTU21D;51290;45.060;38.948;2024-03-29T13:17:55;17.40;61.21
64833;HTU21D;51290;45.060;38.948;2024-03-29T13:20:23;17.44;61.43
64833;HTU21D;51290;45.060;38.948;2024-03-29T13:22:50;17.45;61.29
64833;HTU21D;51290;45.060;38.948;2024-03-29T13:25:18;17.46;61.14
64833;HTU21D;51290;45.060;38.948;2024-03-29T13:27:46;17.46;60.93
64833;HTU21D;51290;45.060;38.948;2024-03-29T13:30:13;17.47;60.85
64833;HTU21D;51290;45.060;38.948;2024-03-29T13:32:41;17.50;60.62
64833;HTU21D;51290;45.060;38.948;2024-03-29T13:35:08;17.50;60.51
64833;HTU21D;51290;45.060;38.948;2024-03-29T13:37:38;17.53;60.52
64833;HTU21D;51290;45.060;38.948;2024-03-29T13:40:07;17.53;60.41
64833;HTU21D;51290;45.060;38.948;2024-03-29T13:42:34;17.53;60.35
64833;HTU21D;51290;45.060;38.948;2024-03-29T13:45:01;17.54;60.17
64833;HTU21D;51290;45.060;38.948;2024-03-29T13:47:27;17.53;60.06
64833;HTU21D;51290;45.060;38.948;2024-03-29T13:49:53;17.52;60.02
64833;HTU21D;51290;45.060;38.948;2024-03-29T13:52:21;17.51;60.06
64833;HTU21D;51290;45.060;38.948;2024-03-29T13:54:47;17.51;60.02
64833;HTU21D;51290;45.060;38.948;2024-03-29T13:57:14;17.47;59.96
64833;HTU21D;51290;45.060;38.948;2024-03-29T13:59:40;17.46;59.93
64833;HTU21D;51290;45.060;38.948;2024-03-29T14:02:11;17.43;59.85
64833;HTU21D;51290;45.060;38.948;2024-03-29T14:04:37;17.40;59.54
64833;HTU21D;51290;45.060;38.948;2024-03-29T14:07:03;17.38;59.44
64833;HTU21D;51290;45.060;38.948;2024-03-29T14:09:33;17.39;59.30
64833;HTU21D;51290;45.060;38.948;2024-03-29T14:11:59;17.37;59.24
64833;HTU21D;51290;45.060;38.948;2024-03-29T14:14:25;17.38;59.31
64833;HTU21D;51290;45.060;38.948;2024-03-29T14:16:51;17.40;59.31
64833;HTU21D;51290;45.060;38.948;2024-03-29T14:19:17;17.44;59.26
64833;HTU21D;51290;45.060;38.948;2024-03-29T14:21:43;17.47;59.04
64833;HTU21D;51290;45.060;38.948;2024-03-29T14:24:09;17.45;58.94
64833;HTU21D;51290;45.060;38.948;2024-03-29T14:26:35;17.38;58.91
64833;HTU21D;51290;45.060;38.948;2024-03-29T14:29:01;17.32;58.95
64833;HTU21D;51290;45.060;38.948;2024-03-29T14:31:27;17.22;59.09
64833;HTU21D;51290;45.060;38.948;2024-03-29T14:33:53;17.14;59.25
64833;HTU21D;51290;45.060;38.948;2024-03-29T14:36:20;17.07;59.31
64833;HTU21D;51290;45.060;38.948;2024-03-29T14:38:46;17.03;59.37
64833;HTU21D;51290;45.060;38.948;2024-03-29T14:41:13;17.01;59.41
64833;HTU21D;51290;45.060;38.948;2024-03-29T14:43:39;17.00;59.34
64833;HTU21D;51290;45.060;38.948;2024-03-29T14:46:05;17.01;59.23
64833;HTU21D;51290;45.060;38.948;2024-03-29T14:48:31;17.02;59.11
64833;HTU21D;51290;45.060;38.948;2024-03-29T14:50:57;17.05;58.91
64833;HTU21D;51290;45.060;38.948;2024-03-29T14:53:23;17.06;58.68
64833;HTU21D;51290;45.060;38.948;2024-03-29T14:55:50;17.07;58.51
64833;HTU21D;51290;45.060;38.948;2024-03-29T14:58:16;17.07;58.43
64833;HTU21D;51290;45.060;38.948;2024-03-29T15:00:42;17.05;58.39
64833;HTU21D;51290;45.060;38.948;2024-03-29T15:03:10;17.04;58.29
64833;HTU21D;51290;45.060;38.948;2024-03-29T15:05:36;17.02;58.25
64833;HTU21D;51290;45.060;38.948;2024-03-29T15:08:02;16.98;58.22
64833;HTU21D;51290;45.060;38.948;2024-03-29T15:10:28;16.94;58.23
64833;HTU21D;51290;45.060;38.948;2024-03-29T15:12:54;16.90;58.27